Ritter, Oregon
Current Conditions -  °F | °C
As of 7:15 PM on Monday 20 Oct 2014 (Local Time) from KGCD Reporting Station
Overcast Overcast  
Wind Chill: 50°   Ceiling: 1500
Heat Index: 50°   Visibility: 10mi
Dew Point: 45°   Wind: 7mph
Humidity: 83%   Direction: 300°WNW
Pressure: 29.89"   Gusts: 12mph
Location:  44.89°N, 119.14°W
Report Text: KGCD 210215Z AUTO 30006G10KT 10SM BKN015 OVC020 10/07 A2989 RMK AO2 T01000072
Loading
Personal Weather Stations






























Interactive Weather Map
Tropical Storm Tracking
New forecast layout! Learn more

10-Day Weather Forecast

Advertisements
Track Severe Weather on mobile